Time;durP1;ratioP1;P1;durP2;ratioP2;P2;SDS_P1;SDS_P2;PMS_P1;PMS_P2;Temp;Humidity;BMP_temperature;BMP_pressure;BME280_temperature;BME280_humidity;BME280_pressure;Samples;Min_cycle;Max_cycle;Signal;HPM_P1;HPM_P2
2022/06/10 00:00:03;;;;;;;11.45;3.97;;;;;;;14.20;71.26;101993.56;5072176;28;20077;-70
2022/06/10 00:02:29;;;;;;;10.05;4.10;;;;;;;14.16;70.92;101979.09;5081380;28;20024;-68
2022/06/10 00:04:54;;;;;;;11.63;4.30;;;;;;;14.22;70.82;101996.06;5073606;28;20047;-68
2022/06/10 00:07:19;;;;;;;10.13;4.20;;;;;;;14.14;71.21;101996.66;5073863;28;20028;-69
2022/06/10 00:09:45;;;;;;;12.18;4.28;;;;;;;14.17;71.41;101991.22;5077007;28;20046;-68
2022/06/10 00:12:10;;;;;;;10.75;4.30;;;;;;;14.15;71.43;101990.50;5082579;28;20183;-68
2022/06/10 00:14:36;;;;;;;12.88;5.20;;;;;;;14.09;71.43;101996.19;5060930;28;20476;-69
2022/06/10 00:17:03;;;;;;;11.75;4.70;;;;;;;14.07;71.23;101992.88;5078677;28;20031;-69
2022/06/10 00:19:28;;;;;;;11.43;4.90;;;;;;;13.95;72.16;101989.44;5077204;28;20067;-69
2022/06/10 00:21:54;;;;;;;10.50;5.40;;;;;;;14.01;71.80;101994.19;5077942;28;20056;-68
2022/06/10 00:24:19;;;;;;;11.10;4.80;;;;;;;14.01;71.64;101994.19;5085084;28;20459;-69
2022/06/10 00:26:45;;;;;;;10.40;4.85;;;;;;;13.93;71.78;101986.09;5071104;28;20039;-69
2022/06/10 00:29:10;;;;;;;9.23;4.53;;;;;;;13.95;71.47;101988.63;5087630;28;20028;-68
2022/06/10 00:31:35;;;;;;;10.65;4.95;;;;;;;13.96;71.91;101985.06;5083319;28;20047;-69
2022/06/10 00:34:01;;;;;;;11.52;5.50;;;;;;;13.94;72.02;101987.78;5080669;28;20059;-69
2022/06/10 00:36:26;;;;;;;12.43;5.20;;;;;;;13.93;71.93;101995.72;5056186;28;20025;-68
2022/06/10 00:38:55;;;;;;;10.00;5.18;;;;;;;13.87;72.29;101990.97;5084628;28;20029;-68
2022/06/10 00:41:20;;;;;;;12.65;4.97;;;;;;;13.86;72.06;101990.16;5076585;28;20043;-68
2022/06/10 00:43:47;;;;;;;11.55;5.00;;;;;;;13.87;72.05;101988.38;5082182;28;20024;-70
2022/06/10 00:46:22;;;;;;;11.60;5.07;;;;;;;13.86;72.31;101994.53;5073907;28;20486;-68
2022/06/10 00:49:03;;;;;;;11.90;5.40;;;;;;;13.81;72.42;101987.88;5078587;28;20032;-69
2022/06/10 00:51:36;;;;;;;12.63;5.40;;;;;;;13.82;72.63;101994.78;5081755;28;20028;-68
2022/06/10 00:54:23;;;;;;;12.00;5.22;;;;;;;13.78;72.68;101988.13;5088060;28;20024;-68
2022/06/10 00:56:52;;;;;;;11.80;5.10;;;;;;;13.74;72.71;101989.31;5083681;28;20111;-68
2022/06/10 00:59:24;;;;;;;14.63;5.60;;;;;;;13.65;72.89;101979.59;5078873;28;20032;-68
2022/06/10 01:02:12;;;;;;;11.43;5.20;;;;;;;13.71;73.01;101992.16;5084114;28;20025;-69
2022/06/10 01:04:40;;;;;;;14.93;5.73;;;;;;;13.72;72.71;101986.00;5086146;28;20024;-69
2022/06/10 01:07:05;;;;;;;9.35;4.90;;;;;;;13.68;72.83;101988.94;5073040;28;20309;-68
2022/06/10 01:09:32;;;;;;;11.27;4.93;;;;;;;13.61;73.11;101980.78;5087788;28;20540;-69
2022/06/10 01:12:16;;;;;;;14.95;5.95;;;;;;;13.61;73.15;101980.78;5062561;28;20488;-68
2022/06/10 01:14:57;;;;;;;11.65;5.22;;;;;;;13.66;73.21;101981.25;5061671;28;20029;-70
2022/06/10 01:18:03;;;;;;;13.13;5.65;;;;;;;13.65;73.18;101971.78;5065888;28;20024;-68
2022/06/10 01:20:56;;;;;;;12.45;5.43;;;;;;;13.67;73.47;101985.50;5004543;28;20049;-69
2022/06/10 01:24:00;;;;;;;12.93;5.90;;;;;;;13.58;73.18;101978.38;5025581;28;20083;-68
2022/06/10 01:29:55;;;;;;;13.07;5.75;;;;;;;13.52;73.86;101982.28;5025621;28;20123;-68
2022/06/10 01:33:05;;;;;;;12.52;5.60;;;;;;;13.60;73.80;101986.94;5024023;28;20107;-69
2022/06/10 01:35:42;;;;;;;10.88;5.25;;;;;;;13.54;74.09;101987.41;5023288;28;20034;-69
2022/06/10 01:38:17;;;;;;;11.02;5.55;;;;;;;13.54;74.33;101979.59;5019741;28;20041;-68
2022/06/10 01:41:04;;;;;;;15.93;5.43;;;;;;;13.57;74.20;101979.34;5022330;28;20507;-70
2022/06/10 01:44:01;;;;;;;12.48;5.50;;;;;;;13.57;74.25;101978.50;5017475;28;20069;-69
2022/06/10 01:46:35;;;;;;;12.20;5.40;;;;;;;13.56;74.04;101969.84;5023101;28;20036;-68
2022/06/10 01:49:04;;;;;;;13.43;5.53;;;;;;;13.49;73.96;101960.84;5025299;28;20658;-68
2022/06/10 01:51:45;;;;;;;;;;;;;;;13.70;73.21;101969.63;5022296;28;20064;-68
2022/06/10 01:54:40;;;;;;;13.30;5.00;;;;;;;13.63;73.77;101978.03;5020991;28;19917;-69
2022/06/10 01:57:11;;;;;;;13.73;4.60;;;;;;;13.59;73.74;101969.63;5037875;28;20056;-69
2022/06/10 01:59:43;;;;;;;12.55;4.38;;;;;;;13.57;73.27;101966.31;5064655;28;20153;-69
2022/06/10 02:02:14;;;;;;;11.88;4.40;;;;;;;13.61;73.84;101975.56;5065474;28;20062;-69
2022/06/10 02:04:45;;;;;;;11.55;4.38;;;;;;;13.57;73.97;101974.13;5061123;28;20042;-69
2022/06/10 02:07:21;;;;;;;12.35;4.20;;;;;;;13.51;74.47;101977.19;5051841;28;20495;-69
2022/06/10 02:09:55;;;;;;;10.68;4.45;;;;;;;13.60;74.34;101979.13;5063398;28;20034;-68
2022/06/10 02:12:31;;;;;;;12.38;3.72;;;;;;;13.59;74.16;101980.06;5080256;28;20433;-69
2022/06/10 02:15:20;;;;;;;13.60;4.40;;;;;;;13.57;74.38;101976.72;5072175;28;20055;-68
2022/06/10 02:18:05;;;;;;;12.38;4.22;;;;;;;13.57;74.76;101971.50;5058194;28;20036;-68
2022/06/10 02:20:32;;;;;;;12.13;4.55;;;;;;;13.60;74.95;101973.91;5076536;28;20075;-68
2022/06/10 02:23:01;;;;;;;10.35;4.10;;;;;;;13.68;74.29;101976.75;5075965;28;20024;-68
2022/06/10 02:25:37;;;;;;;13.25;3.97;;;;;;;13.61;74.36;101975.56;5050675;28;20028;-69
2022/06/10 02:28:09;;;;;;;10.02;4.28;;;;;;;13.61;75.61;101979.94;5068805;28;20048;-69
2022/06/10 02:30:43;;;;;;;12.20;3.97;;;;;;;13.64;74.92;101979.69;5075096;28;20095;-69
2022/06/10 02:33:10;;;;;;;11.10;4.40;;;;;;;13.67;74.87;101980.31;5077413;28;20060;-69
2022/06/10 02:35:42;;;;;;;11.88;4.20;;;;;;;13.61;75.30;101990.38;5066942;28;20427;-68
2022/06/10 02:38:14;;;;;;;13.60;4.43;;;;;;;13.52;75.40;101992.72;5076888;28;20024;-69
2022/06/10 02:40:45;;;;;;;12.88;5.03;;;;;;;13.43;76.04;101992.59;5076513;28;20032;-68
2022/06/10 02:43:29;;;;;;;10.27;4.60;;;;;;;13.60;75.69;101989.53;5080533;28;20069;-69
2022/06/10 02:46:02;;;;;;;11.98;4.50;;;;;;;13.66;75.66;101989.06;5061689;28;20153;-69
2022/06/10 02:48:39;;;;;;;10.73;4.45;;;;;;;13.70;75.37;101985.25;5061422;28;20494;-69
2022/06/10 02:51:05;;;;;;;9.85;4.07;;;;;;;13.69;74.97;101981.00;5084284;28;20460;-69
2022/06/10 02:53:31;;;;;;;13.35;4.50;;;;;;;13.70;75.67;101980.06;5074241;28;20032;-69
2022/06/10 02:55:56;;;;;;;10.48;4.35;;;;;;;13.73;75.38;101979.84;5073653;28;20033;-69
2022/06/10 03:01:20;;;;;;;11.18;3.80;;;;;;;13.77;75.27;101976.06;5078601;28;20062;-69
2022/06/10 03:04:06;;;;;;;11.93;4.00;;;;;;;13.78;75.38;101980.31;5075910;28;20115;-69
2022/06/10 03:06:37;;;;;;;14.65;4.18;;;;;;;13.81;74.96;101972.22;5084163;28;20053;-69
2022/06/10 03:09:18;;;;;;;14.65;4.18;;;;;;;13.84;75.06;101972.97;5085449;28;20381;-70
2022/06/10 03:11:56;;;;;;;11.93;4.22;;;;;;;13.80;75.85;101981.00;5082347;28;20116;-69
2022/06/10 03:14:49;;;;;;;11.90;4.25;;;;;;;13.84;75.80;101981.63;5075100;28;20032;-69
2022/06/10 03:17:30;;;;;;;10.55;3.47;;;;;;;13.87;76.04;101991.81;5063302;28;20488;-69
2022/06/10 03:20:22;;;;;;;12.70;3.75;;;;;;;13.85;76.25;101998.09;5072903;28;20130;-68
2022/06/10 03:22:47;;;;;;;11.52;3.90;;;;;;;13.84;76.22;101993.84;5062015;28;20044;-70
2022/06/10 03:25:15;;;;;;;11.50;3.60;;;;;;;13.83;76.31;102003.44;5084685;28;20090;-69
2022/06/10 03:27:49;;;;;;;11.63;3.70;;;;;;;13.85;76.43;102008.53;5078267;28;20115;-69
2022/06/10 03:30:18;;;;;;;12.30;3.60;;;;;;;13.85;76.49;102011.13;5067851;28;20097;-68
2022/06/10 03:32:48;;;;;;;10.30;3.58;;;;;;;13.86;77.34;102015.41;5086058;28;20035;-69
2022/06/10 03:35:17;;;;;;;12.32;3.92;;;;;;;13.77;78.71;102023.00;5078890;28;20036;-70
2022/06/10 03:37:43;;;;;;;14.15;4.18;;;;;;;13.79;78.84;102025.47;5086094;28;20384;-69
2022/06/10 03:40:19;;;;;;;9.77;3.47;;;;;;;13.84;78.95;102017.31;5084191;28;20059;-69
2022/06/10 03:42:51;;;;;;;11.80;3.80;;;;;;;13.87;79.26;102017.06;5066159;28;20024;-69
2022/06/10 03:45:21;;;;;;;10.52;3.78;;;;;;;13.68;80.01;102008.03;5083558;28;20032;-69
2022/06/10 03:47:47;;;;;;;13.55;3.95;;;;;;;13.76;79.90;102021.34;5079523;28;20074;-69
2022/06/10 03:50:16;;;;;;;11.57;4.13;;;;;;;13.72;80.33;102014.69;5069090;28;20391;-69
2022/06/10 03:52:44;;;;;;;12.35;3.78;;;;;;;13.81;79.54;102011.34;5065135;28;20034;-69
2022/06/10 03:55:15;;;;;;;10.48;3.88;;;;;;;13.81;80.25;102024.38;5067740;28;20039;-69
2022/06/10 03:57:41;;;;;;;12.80;3.53;;;;;;;13.77;80.28;102028.19;5085054;28;20138;-68
2022/06/10 04:00:08;;;;;;;11.93;3.95;;;;;;;13.86;80.80;102031.03;5070243;28;20317;-69
2022/06/10 04:02:33;;;;;;;11.50;3.60;;;;;;;13.88;80.60;102030.00;5065505;28;20028;-69
2022/06/10 04:04:59;;;;;;;11.25;3.83;;;;;;;13.85;81.79;102032.00;5069094;28;20384;-69
2022/06/10 04:07:24;;;;;;;12.95;3.40;;;;;;;13.81;81.50;102027.00;5069896;28;20075;-71
2022/06/10 04:09:50;;;;;;;9.52;3.60;;;;;;;13.77;83.36;102037.81;5071527;28;20103;-69
2022/06/10 04:12:15;;;;;;;10.63;3.72;;;;;;;13.78;83.77;102045.50;5071469;28;20040;-69
2022/06/10 04:14:42;;;;;;;9.68;3.53;;;;;;;13.91;83.09;102036.75;5066700;28;20032;-69
2022/06/10 04:17:09;;;;;;;12.27;3.72;;;;;;;13.92;83.47;102041.00;5071356;28;20024;-69
2022/06/10 04:19:34;;;;;;;12.30;3.78;;;;;;;13.83;84.87;102055.59;5066258;28;20519;-69
2022/06/10 04:22:00;;;;;;;12.45;3.85;;;;;;;13.81;85.42;102049.63;5073343;28;20027;-70
2022/06/10 04:24:26;;;;;;;9.65;3.70;;;;;;;13.92;84.25;102035.78;5063299;28;20032;-68
2022/06/10 04:26:51;;;;;;;9.77;3.22;;;;;;;13.88;84.29;102044.78;5082848;28;20066;-70
2022/06/10 04:29:17;;;;;;;9.98;3.50;;;;;;;13.86;85.23;102041.47;5068691;28;20032;-69
2022/06/10 04:31:42;;;;;;;10.02;3.50;;;;;;;13.90;85.42;102045.53;5059671;28;20028;-69
2022/06/10 04:34:08;;;;;;;10.68;3.33;;;;;;;13.96;84.96;102052.88;5078678;28;20416;-68
2022/06/10 04:36:34;;;;;;;10.77;3.72;;;;;;;13.97;84.58;102044.91;5084821;28;20031;-67
2022/06/10 04:39:00;;;;;;;10.13;3.42;;;;;;;13.98;84.94;102041.38;5060568;28;20034;-68
2022/06/10 04:41:25;;;;;;;9.88;3.30;;;;;;;14.03;84.38;102043.63;5061291;28;20031;-69
2022/06/10 04:43:51;;;;;;;9.27;3.13;;;;;;;14.04;84.35;102035.66;5077419;28;20070;-70
2022/06/10 04:46:29;;;;;;;9.70;3.38;;;;;;;13.98;85.21;102025.72;5073973;28;20497;-69
2022/06/10 04:48:54;;;;;;;8.38;3.55;;;;;;;14.09;84.53;102038.75;5081789;28;20475;-68
2022/06/10 04:51:20;;;;;;;9.73;3.08;;;;;;;14.08;84.77;102031.06;5065926;28;20024;-68
2022/06/10 04:53:46;;;;;;;9.38;3.03;;;;;;;14.12;85.13;102032.50;5075975;28;20342;-69
2022/06/10 04:56:11;;;;;;;10.02;3.13;;;;;;;14.10;84.37;102029.16;5065252;28;20024;-69
2022/06/10 04:58:36;;;;;;;10.57;3.83;;;;;;;14.16;85.10;102031.28;5082545;28;20024;-68
2022/06/10 05:01:02;;;;;;;10.38;3.92;;;;;;;14.14;85.73;102025.38;5083986;28;20020;-69
2022/06/10 05:03:27;;;;;;;9.32;3.67;;;;;;;14.19;85.63;102031.06;5060590;28;20032;-68
2022/06/10 05:05:53;;;;;;;11.82;4.10;;;;;;;14.21;84.93;102031.75;5084327;28;20020;-69
2022/06/10 05:08:18;;;;;;;10.68;4.00;;;;;;;14.23;85.02;102032.50;5068125;28;20032;-68
2022/06/10 05:10:46;;;;;;;11.70;4.20;;;;;;;14.24;85.27;102041.16;5068231;28;20028;-69
2022/06/10 05:13:11;;;;;;;9.88;3.85;;;;;;;14.26;84.79;102032.25;5067722;28;20028;-69
2022/06/10 05:15:37;;;;;;;10.43;4.28;;;;;;;14.24;85.49;102023.72;5053459;28;20043;-70
2022/06/10 05:18:03;;;;;;;10.40;4.07;;;;;;;14.33;84.86;102022.16;5070150;28;20047;-69
2022/06/10 05:20:37;;;;;;;10.15;4.05;;;;;;;14.35;85.10;102023.69;5053243;28;20046;-69
2022/06/10 05:23:03;;;;;;;10.13;3.70;;;;;;;14.34;84.68;102016.81;5071766;28;20428;-69
2022/06/10 05:25:29;;;;;;;10.70;4.20;;;;;;;14.41;84.54;102026.78;5069905;28;20017;-69
2022/06/10 05:27:54;;;;;;;11.82;3.80;;;;;;;14.35;83.70;102015.88;5087121;28;20019;-70
2022/06/10 05:30:23;;;;;;;9.68;3.70;;;;;;;14.44;83.93;102016.09;5067881;28;20027;-69
2022/06/10 05:32:49;;;;;;;13.27;4.05;;;;;;;14.43;84.16;102009.22;5080430;28;20122;-69
2022/06/10 05:35:15;;;;;;;13.57;6.32;;;;;;;14.50;83.72;102010.41;5071131;28;20479;-71
2022/06/10 05:37:41;;;;;;;10.77;4.35;;;;;;;14.51;83.67;102017.31;5055547;28;20923;-69
2022/06/10 05:40:07;;;;;;;12.50;4.95;;;;;;;14.51;83.68;102022.53;5082569;28;20059;-68
2022/06/10 05:42:33;;;;;;;11.48;4.45;;;;;;;14.48;82.86;102017.53;5078210;28;20020;-69
2022/06/10 05:44:58;;;;;;;11.25;4.20;;;;;;;14.53;83.13;102020.63;5079634;28;20027;-70
2022/06/10 05:47:29;;;;;;;11.80;4.22;;;;;;;14.55;82.73;102029.16;5056599;28;20024;-69
2022/06/10 05:49:57;;;;;;;12.07;4.40;;;;;;;14.56;82.11;102029.03;5071528;28;20028;-69
2022/06/10 05:52:25;;;;;;;12.45;4.68;;;;;;;14.61;82.37;102018.22;5073593;28;20032;-70
2022/06/10 05:54:53;;;;;;;13.30;4.72;;;;;;;14.63;82.18;102021.56;5078794;28;20047;-69
2022/06/10 05:57:19;;;;;;;12.70;6.60;;;;;;;14.66;81.87;102021.28;5078625;28;20023;-69
2022/06/10 05:59:47;;;;;;;14.52;5.72;;;;;;;14.69;81.68;102021.06;5071314;28;20028;-69
2022/06/10 06:02:14;;;;;;;13.43;5.60;;;;;;;14.73;82.03;102027.69;5072599;28;20029;-69
2022/06/10 06:04:40;;;;;;;12.43;5.68;;;;;;;14.75;81.49;102019.75;5065505;28;20821;-69
2022/06/10 06:07:06;;;;;;;11.73;5.03;;;;;;;14.74;81.18;102008.47;5069045;28;20055;-69
2022/06/10 06:09:32;;;;;;;15.75;5.85;;;;;;;14.87;81.21;102024.81;5068818;28;20032;-70
2022/06/10 06:11:58;;;;;;;12.80;5.72;;;;;;;14.96;81.25;102028.44;5067166;28;20244;-69
2022/06/10 06:14:26;;;;;;;11.00;5.40;;;;;;;14.98;80.58;102010.88;5071812;28;20043;-69
2022/06/10 06:16:55;;;;;;;11.95;5.47;;;;;;;15.02;80.31;102027.13;5075770;28;20035;-69
2022/06/10 06:19:21;;;;;;;12.90;5.95;;;;;;;15.04;80.27;102030.44;5069845;28;20033;-69
2022/06/10 06:21:46;;;;;;;14.32;6.60;;;;;;;15.04;80.33;102025.22;5071263;28;20016;-69
2022/06/10 06:24:11;;;;;;;14.23;5.93;;;;;;;15.03;80.38;102018.34;5071805;28;20425;-69
2022/06/10 06:26:37;;;;;;;13.65;5.50;;;;;;;15.12;80.79;102036.69;5085046;28;20028;-69
2022/06/10 06:29:03;;;;;;;13.90;5.35;;;;;;;15.14;80.60;102045.25;5076672;28;20032;-69
2022/06/10 06:31:28;;;;;;;14.88;6.05;;;;;;;15.21;80.09;102045.59;5086590;28;20020;-68
2022/06/10 06:33:54;;;;;;;12.50;6.10;;;;;;;15.26;80.34;102048.66;5082757;28;20036;-70
2022/06/10 06:36:23;;;;;;;13.05;5.80;;;;;;;15.27;79.96;102045.09;5077181;28;20028;-69
2022/06/10 06:38:48;;;;;;;;;;;;;;;15.36;79.69;102046.09;5078684;28;20086;-69
2022/06/10 06:41:14;;;;;;;13.90;5.38;;;;;;;15.33;79.17;102054.22;5074246;28;20363;-69
2022/06/10 06:43:39;;;;;;;13.20;5.60;;;;;;;15.36;80.66;102043.47;5070236;28;20016;-69
2022/06/10 06:46:05;;;;;;;13.32;5.75;;;;;;;15.37;80.05;102034.72;5085315;28;20152;-69
2022/06/10 06:48:31;;;;;;;13.00;5.50;;;;;;;15.45;79.35;102049.75;5086126;28;20407;-68
2022/06/10 06:50:56;;;;;;;12.82;5.55;;;;;;;15.49;79.66;102051.16;5071838;28;20095;-69
2022/06/10 06:53:22;;;;;;;12.73;5.72;;;;;;;15.53;79.60;102047.31;5075569;28;20479;-69
2022/06/10 06:55:47;;;;;;;13.75;5.00;;;;;;;15.56;79.48;102052.31;5070359;28;20032;-69
2022/06/10 06:58:15;;;;;;;11.77;4.93;;;;;;;15.57;78.96;102048.72;5069982;28;20716;-70
2022/06/10 07:00:41;;;;;;;15.93;7.68;;;;;;;15.54;79.43;102054.19;5071163;28;20316;-69
2022/06/10 07:03:06;;;;;;;11.43;4.80;;;;;;;15.64;79.00;102057.75;5079750;28;20865;-68
2022/06/10 07:05:32;;;;;;;12.85;4.80;;;;;;;15.66;78.87;102063.69;5059035;28;20028;-70
2022/06/10 07:07:59;;;;;;;11.95;5.75;;;;;;;15.69;78.44;102058.19;5082791;28;20042;-68
2022/06/10 07:10:25;;;;;;;11.43;4.50;;;;;;;15.75;78.56;102062.91;5074879;28;20028;-69
2022/06/10 07:12:50;;;;;;;10.40;4.10;;;;;;;15.77;78.88;102055.78;5067571;28;20392;-68
2022/06/10 07:15:17;;;;;;;10.90;3.65;;;;;;;15.87;78.29;102056.66;5067936;28;20380;-71
2022/06/10 07:17:43;;;;;;;9.10;3.13;;;;;;;15.87;77.39;102046.19;5068161;28;20024;-69
2022/06/10 07:20:17;;;;;;;11.13;3.50;;;;;;;15.98;77.19;102062.75;5046903;28;20541;-68
2022/06/10 07:22:43;;;;;;;11.00;3.25;;;;;;;15.98;77.01;102052.28;5071248;28;20471;-68
2022/06/10 07:25:08;;;;;;;10.20;3.40;;;;;;;16.01;76.33;102052.03;5070244;28;20542;-69
2022/06/10 07:27:36;;;;;;;9.43;2.90;;;;;;;16.07;76.79;102051.53;5050115;28;20519;-69
2022/06/10 07:30:04;;;;;;;10.75;2.97;;;;;;;16.14;76.05;102063.94;5071534;28;20031;-69
2022/06/10 07:32:29;;;;;;;9.80;3.22;;;;;;;16.21;76.31;102072.09;5078784;28;20593;-68
2022/06/10 07:34:55;;;;;;;11.35;4.80;;;;;;;16.21;76.14;102064.25;5072593;28;20046;-70
2022/06/10 07:37:20;;;;;;;10.50;4.53;;;;;;;16.34;76.21;102062.22;5073454;28;20067;-69
2022/06/10 07:39:45;;;;;;;9.63;3.00;;;;;;;16.30;74.88;102055.59;5072136;28;20411;-69
2022/06/10 07:42:11;;;;;;;10.00;2.80;;;;;;;16.42;75.65;102067.63;5070702;28;20421;-70
2022/06/10 07:44:37;;;;;;;8.88;2.70;;;;;;;16.50;74.78;102063.50;5070439;28;20126;-68
2022/06/10 07:47:11;;;;;;;10.05;3.35;;;;;;;16.60;75.23;102061.75;5066314;28;20600;-69
2022/06/10 07:49:37;;;;;;;10.93;3.72;;;;;;;16.58;73.90;102050.59;5062446;28;20033;-68
2022/06/10 07:52:03;;;;;;;10.27;5.35;;;;;;;16.67;73.37;102049.78;5076689;28;20035;-68
2022/06/10 07:54:30;;;;;;;8.65;3.60;;;;;;;16.74;73.79;102048.28;5079023;28;20099;-68
2022/06/10 07:56:55;;;;;;;7.45;2.70;;;;;;;16.81;73.67;102045.97;5078979;28;20032;-69
2022/06/10 07:59:21;;;;;;;9.52;2.80;;;;;;;16.95;73.90;102064.75;5066488;28;20097;-68
2022/06/10 08:01:46;;;;;;;9.60;3.15;;;;;;;17.03;73.37;102050.13;5083412;28;20028;-70
2022/06/10 08:04:12;;;;;;;8.00;2.90;;;;;;;17.10;73.00;102053.88;5084236;28;20058;-68
2022/06/10 08:06:41;;;;;;;8.45;2.45;;;;;;;17.19;71.37;102058.28;5082431;28;20024;-68
2022/06/10 08:09:07;;;;;;;9.45;2.60;;;;;;;17.30;71.58;102052.88;5084340;28;20031;-68
2022/06/10 08:11:32;;;;;;;11.45;2.65;;;;;;;17.39;71.44;102062.56;5060409;28;20098;-68
2022/06/10 08:13:58;;;;;;;9.50;2.40;;;;;;;17.41;71.55;102060.59;5079520;28;20508;-69
2022/06/10 08:16:25;;;;;;;8.65;2.45;;;;;;;17.57;70.75;102064.47;5078329;28;20069;-69
2022/06/10 08:18:51;;;;;;;8.80;2.10;;;;;;;17.68;70.31;102064.31;5073104;28;20474;-69
2022/06/10 08:24:01;;;;;;;7.70;2.10;;;;;;;17.86;69.34;102065.25;5075180;28;20089;-68
2022/06/10 08:26:27;;;;;;;7.43;1.98;;;;;;;17.89;69.69;102062.34;5078319;28;20048;-69
2022/06/10 08:28:54;;;;;;;7.88;2.25;;;;;;;18.04;69.64;102058.28;5075015;28;20024;-68
2022/06/10 08:31:21;;;;;;;9.40;2.30;;;;;;;18.05;68.60;102062.56;5076006;28;20043;-68
2022/06/10 08:33:47;;;;;;;8.20;2.55;;;;;;;18.15;68.72;102056.44;5075471;28;20036;-69
2022/06/10 08:36:13;;;;;;;8.50;2.10;;;;;;;18.20;67.60;102067.34;5074530;28;20035;-68
2022/06/10 08:38:42;;;;;;;8.50;2.30;;;;;;;18.24;66.94;102058.22;5057927;28;20120;-68
2022/06/10 08:41:13;;;;;;;8.18;2.10;;;;;;;18.29;66.11;102071.72;5071445;28;20028;-68
2022/06/10 08:43:39;;;;;;;11.20;2.30;;;;;;;18.33;66.14;102062.59;5075780;28;20024;-70
2022/06/10 08:46:23;;;;;;;10.02;2.50;;;;;;;18.39;66.40;102062.00;5075426;28;20393;-69
2022/06/10 08:49:10;;;;;;;8.00;2.20;;;;;;;18.44;66.94;102065.00;5083123;28;20046;-69
2022/06/10 08:52:02;;;;;;;8.52;2.15;;;;;;;18.55;67.38;102072.69;5073358;28;20111;-68
2022/06/10 08:54:35;;;;;;;9.65;2.30;;;;;;;18.51;65.95;102060.81;5064171;28;20446;-68
2022/06/10 08:57:06;;;;;;;10.18;2.50;;;;;;;18.67;66.64;102072.50;5071214;28;20057;-68
2022/06/10 08:59:43;;;;;;;9.80;2.67;;;;;;;18.75;66.96;102059.47;5073724;28;20035;-68
2022/06/10 09:02:08;;;;;;;10.27;2.20;;;;;;;18.73;65.47;102064.06;5069128;28;20064;-71
2022/06/10 09:04:39;;;;;;;14.73;5.13;;;;;;;18.80;65.34;102065.09;5081890;28;20479;-69
2022/06/10 09:07:21;;;;;;;20.05;9.18;;;;;;;18.88;66.78;102067.84;5068983;28;20067;-69
2022/06/10 09:09:47;;;;;;;12.52;3.10;;;;;;;18.83;65.71;102065.66;5069381;28;20042;-68
2022/06/10 09:12:21;;;;;;;10.77;3.08;;;;;;;18.83;65.85;102065.66;5076673;28;20048;-69
2022/06/10 09:14:51;;;;;;;9.13;2.55;;;;;;;18.87;65.30;102066.19;5052283;28;20028;-71
2022/06/10 09:17:25;;;;;;;9.25;2.78;;;;;;;18.88;65.13;102061.75;5087574;28;20028;-69
2022/06/10 09:20:09;;;;;;;9.93;4.15;;;;;;;19.02;65.98;102077.81;5074064;28;20033;-69
2022/06/10 09:22:41;;;;;;;8.05;2.55;;;;;;;18.97;65.19;102061.66;5078267;28;20028;-68
2022/06/10 09:25:17;;;;;;;11.52;2.90;;;;;;;19.03;65.42;102068.94;5079601;28;20039;-69
2022/06/10 09:27:50;;;;;;;8.60;2.83;;;;;;;19.12;65.16;102071.66;5079654;28;20108;-68
2022/06/10 09:30:19;;;;;;;10.65;2.88;;;;;;;19.18;66.13;102068.44;5068197;28;20090;-68
2022/06/10 09:32:56;;;;;;;10.93;2.60;;;;;;;19.28;65.65;102074.44;5087665;28;20016;-68
2022/06/10 09:35:48;;;;;;;8.43;2.78;;;;;;;19.35;65.37;102064.97;5070913;28;20464;-68
2022/06/10 09:38:22;;;;;;;9.38;3.20;;;;;;;19.45;65.38;102065.69;5075529;28;20028;-70
2022/06/10 09:40:57;;;;;;;12.00;4.30;;;;;;;19.46;64.28;102064.72;5080819;28;20029;-69
2022/06/10 09:43:29;;;;;;;31.27;3.97;;;;;;;19.46;63.37;102072.63;5077496;28;20029;-68
2022/06/10 09:46:20;;;;;;;24.33;3.90;;;;;;;19.58;65.27;102073.19;5075659;28;20052;-69
2022/06/10 09:48:58;;;;;;;9.50;2.83;;;;;;;19.69;65.69;102062.44;5076738;28;20400;-69
2022/06/10 09:51:23;;;;;;;9.83;2.97;;;;;;;19.84;64.91;102060.03;5075181;28;20046;-70
2022/06/10 09:54:12;;;;;;;9.95;3.60;;;;;;;19.86;64.26;102063.38;5076187;28;20428;-68
2022/06/10 09:57:08;;;;;;;14.88;3.40;;;;;;;20.04;64.61;102060.66;5072715;28;20034;-68
2022/06/10 09:59:53;;;;;;;15.40;3.92;;;;;;;20.13;63.74;102065.81;5061377;28;20039;-70
2022/06/10 10:02:41;;;;;;;9.45;3.83;;;;;;;20.21;64.08;102072.94;5075448;28;20060;-70
2022/06/10 10:05:18;;;;;;;;;;;;;;;20.33;64.13;102068.19;5077118;28;20038;-69
2022/06/10 10:07:46;;;;;;;10.75;3.08;;;;;;;20.34;61.65;102067.22;5075615;28;19912;-68
2022/06/10 10:10:39;;;;;;;10.20;2.78;;;;;;;20.36;62.32;102055.53;5069815;28;20071;-69
2022/06/10 10:13:23;;;;;;;11.32;3.72;;;;;;;20.53;61.88;102074.06;5067117;28;20054;-68
2022/06/10 10:15:54;;;;;;;10.02;3.33;;;;;;;20.61;61.72;102068.81;5076853;28;20035;-68
2022/06/10 10:18:36;;;;;;;12.18;3.47;;;;;;;20.75;61.42;102064.72;5081736;28;20024;-68
2022/06/10 10:21:19;;;;;;;10.60;2.90;;;;;;;20.69;62.00;102072.28;5077765;28;20024;-68
2022/06/10 10:23:54;;;;;;;9.85;3.28;;;;;;;20.71;62.19;102061.59;5061704;28;20016;-68
2022/06/10 10:26:32;;;;;;;10.30;3.65;;;;;;;20.87;61.93;102066.06;5080119;28;20054;-68
2022/06/10 10:29:06;;;;;;;12.75;4.05;;;;;;;20.95;61.40;102060.81;5069775;28;20070;-68
2022/06/10 10:31:38;;;;;;;23.13;4.40;;;;;;;20.96;61.73;102065.09;5072832;28;20025;-70
2022/06/10 10:34:05;;;;;;;15.10;3.10;;;;;;;20.91;61.76;102059.47;5049432;28;20384;-68
2022/06/10 10:36:32;;;;;;;10.93;3.83;;;;;;;20.91;62.04;102059.47;5070868;28;20024;-68
2022/06/10 10:39:12;;;;;;;9.52;3.30;;;;;;;20.90;60.81;102060.47;5067790;28;20034;-68
2022/06/10 10:41:42;;;;;;;10.52;3.50;;;;;;;20.78;61.33;102059.13;5077443;28;20345;-68
2022/06/10 10:44:38;;;;;;;13.00;4.18;;;;;;;20.87;62.24;102064.28;5070890;28;20016;-69
2022/06/10 10:47:09;;;;;;;11.73;3.50;;;;;;;20.92;60.64;102055.84;5073639;28;20523;-69
2022/06/10 10:49:55;;;;;;;11.57;3.42;;;;;;;20.97;61.35;102061.47;5060706;28;20479;-70
2022/06/10 10:52:37;;;;;;;10.75;3.83;;;;;;;20.90;62.37;102068.38;5065964;28;20115;-68
2022/06/10 10:55:07;;;;;;;12.05;3.78;;;;;;;20.89;62.50;102061.47;5066975;28;20491;-69
2022/06/10 10:57:38;;;;;;;10.23;3.20;;;;;;;20.82;62.88;102065.75;5079500;28;20024;-71
2022/06/10 11:00:16;;;;;;;9.50;3.40;;;;;;;20.82;62.41;102071.84;5051299;28;20077;-68
2022/06/10 11:02:47;;;;;;;9.03;3.30;;;;;;;20.82;62.34;102066.56;5068417;28;20434;-68
2022/06/10 11:05:32;;;;;;;9.85;4.00;;;;;;;20.76;62.86;102071.63;5078434;28;20803;-68
2022/06/10 11:08:13;;;;;;;10.50;3.70;;;;;;;20.91;62.87;102062.13;5075862;28;20050;-68
2022/06/10 11:10:50;;;;;;;11.15;3.80;;;;;;;20.81;62.62;102064.06;5071243;28;20485;-68
2022/06/10 11:13:22;;;;;;;10.30;3.53;;;;;;;20.68;60.95;102065.38;5072115;28;20036;-68
2022/06/10 11:15:48;;;;;;;9.90;3.70;;;;;;;20.67;61.36;102066.38;5071670;28;20307;-68
2022/06/10 11:18:14;;;;;;;9.95;3.60;;;;;;;20.60;62.30;102062.72;5068290;28;20413;-68
2022/06/10 11:20:40;;;;;;;10.10;3.42;;;;;;;20.74;62.01;102063.06;5085098;28;20032;-68
2022/06/10 11:23:31;;;;;;;15.35;3.80;;;;;;;20.86;63.68;102059.16;5086374;28;20038;-68
2022/06/10 11:26:10;;;;;;;9.77;3.25;;;;;;;20.89;62.86;102056.19;5071406;28;20055;-68
2022/06/10 11:28:39;;;;;;;10.07;3.63;;;;;;;20.84;61.42;102061.13;5080765;28;20043;-68
2022/06/10 11:31:18;;;;;;;15.30;4.95;;;;;;;21.07;62.29;102059.50;5085372;28;20115;-68
2022/06/10 11:33:46;;;;;;;31.95;5.38;;;;;;;21.26;63.07;102053.06;5082571;28;20670;-68
2022/06/10 11:36:21;;;;;;;10.30;3.63;;;;;;;21.43;62.69;102059.19;5067231;28;20028;-69
2022/06/10 11:39:18;;;;;;;15.77;3.85;;;;;;;21.61;61.83;102051.91;5070244;28;20028;-68
2022/06/10 11:42:07;;;;;;;11.37;3.77;;;;;;;21.63;60.33;102043.84;5079198;28;20047;-68
2022/06/10 11:44:37;;;;;;;80.45;15.10;;;;;;;21.65;59.48;102047.94;5054285;28;20069;-68
2022/06/10 11:47:05;;;;;;;77.32;15.73;;;;;;;21.65;59.16;102045.31;5076627;28;20024;-68